sensor_id;sensor_type;location;lat;lon;timestamp;temperature;humidity
27492;DHT22;14927;51.210;6.838;2023-02-19T00:01:46;14.80;71.70
27492;DHT22;14927;51.210;6.838;2023-02-19T00:04:31;15.00;71.80
27492;DHT22;14927;51.210;6.838;2023-02-19T00:07:15;14.70;71.70
27492;DHT22;14927;51.210;6.838;2023-02-19T00:10:00;14.80;71.80
27492;DHT22;14927;51.210;6.838;2023-02-19T00:12:44;14.80;71.80
27492;DHT22;14927;51.210;6.838;2023-02-19T00:15:31;14.80;71.80
27492;DHT22;14927;51.210;6.838;2023-02-19T00:18:16;14.80;71.80
27492;DHT22;14927;51.210;6.838;2023-02-19T00:21:01;14.80;71.80
27492;DHT22;14927;51.210;6.838;2023-02-19T00:23:53;14.80;71.80
27492;DHT22;14927;51.210;6.838;2023-02-19T00:26:39;14.80;71.80
27492;DHT22;14927;51.210;6.838;2023-02-19T00:29:24;14.80;71.80
27492;DHT22;14927;51.210;6.838;2023-02-19T00:32:09;14.80;71.80
27492;DHT22;14927;51.210;6.838;2023-02-19T00:34:54;14.90;71.80
27492;DHT22;14927;51.210;6.838;2023-02-19T00:37:38;14.80;71.60
27492;DHT22;14927;51.210;6.838;2023-02-19T00:40:23;14.90;71.70
27492;DHT22;14927;51.210;6.838;2023-02-19T00:43:09;14.80;71.50
27492;DHT22;14927;51.210;6.838;2023-02-19T00:45:54;14.80;71.60
27492;DHT22;14927;51.210;6.838;2023-02-19T00:48:38;14.80;71.60
27492;DHT22;14927;51.210;6.838;2023-02-19T00:51:25;14.80;71.60
27492;DHT22;14927;51.210;6.838;2023-02-19T00:54:14;14.80;71.70
27492;DHT22;14927;51.210;6.838;2023-02-19T00:56:59;14.80;71.70
27492;DHT22;14927;51.210;6.838;2023-02-19T00:59:44;15.10;71.90
27492;DHT22;14927;51.210;6.838;2023-02-19T01:02:29;14.80;71.60
27492;DHT22;14927;51.210;6.838;2023-02-19T01:05:13;14.80;71.60
27492;DHT22;14927;51.210;6.838;2023-02-19T01:07:58;14.80;71.60
27492;DHT22;14927;51.210;6.838;2023-02-19T01:10:43;14.80;71.70
27492;DHT22;14927;51.210;6.838;2023-02-19T01:13:28;14.80;71.60
27492;DHT22;14927;51.210;6.838;2023-02-19T01:16:15;14.80;71.50
27492;DHT22;14927;51.210;6.838;2023-02-19T01:19:02;14.80;71.40
27492;DHT22;14927;51.210;6.838;2023-02-19T01:21:46;14.70;72.20
27492;DHT22;14927;51.210;6.838;2023-02-19T01:24:31;14.80;71.50
27492;DHT22;14927;51.210;6.838;2023-02-19T01:27:16;14.80;71.50
27492;DHT22;14927;51.210;6.838;2023-02-19T01:30:00;14.80;71.50
27492;DHT22;14927;51.210;6.838;2023-02-19T01:32:45;14.80;71.50
27492;DHT22;14927;51.210;6.838;2023-02-19T01:35:30;14.80;72.20
27492;DHT22;14927;51.210;6.838;2023-02-19T01:38:14;14.70;71.30
27492;DHT22;14927;51.210;6.838;2023-02-19T01:41:02;14.80;71.30
27492;DHT22;14927;51.210;6.838;2023-02-19T01:45:10;14.70;71.20
27492;DHT22;14927;51.210;6.838;2023-02-19T01:47:14;14.80;71.20
27492;DHT22;14927;51.210;6.838;2023-02-19T01:50:01;14.80;71.10
27492;DHT22;14927;51.210;6.838;2023-02-19T01:52:46;14.80;71.10
27492;DHT22;14927;51.210;6.838;2023-02-19T01:55:32;14.80;71.10
27492;DHT22;14927;51.210;6.838;2023-02-19T01:58:18;14.80;71.00
27492;DHT22;14927;51.210;6.838;2023-02-19T02:01:06;14.80;70.90
27492;DHT22;14927;51.210;6.838;2023-02-19T02:03:51;14.80;70.90
27492;DHT22;14927;51.210;6.838;2023-02-19T02:06:43;14.80;70.80
27492;DHT22;14927;51.210;6.838;2023-02-19T02:09:31;14.80;70.80
27492;DHT22;14927;51.210;6.838;2023-02-19T02:12:34;14.80;70.80
27492;DHT22;14927;51.210;6.838;2023-02-19T02:15:19;14.80;71.00
27492;DHT22;14927;51.210;6.838;2023-02-19T02:18:17;14.80;71.60
27492;DHT22;14927;51.210;6.838;2023-02-19T02:21:57;14.80;71.00
27492;DHT22;14927;51.210;6.838;2023-02-19T02:28:05;14.80;71.00
27492;DHT22;14927;51.210;6.838;2023-02-19T02:34:40;14.70;71.30
27492;DHT22;14927;51.210;6.838;2023-02-19T02:37:39;14.70;71.10
27492;DHT22;14927;51.210;6.838;2023-02-19T02:40:26;14.70;71.20
27492;DHT22;14927;51.210;6.838;2023-02-19T02:43:11;14.70;71.40
27492;DHT22;14927;51.210;6.838;2023-02-19T02:45:56;14.70;71.50
27492;DHT22;14927;51.210;6.838;2023-02-19T02:48:57;14.70;71.50
27492;DHT22;14927;51.210;6.838;2023-02-19T02:51:51;14.70;71.80
27492;DHT22;14927;51.210;6.838;2023-02-19T02:54:37;14.70;71.70
27492;DHT22;14927;51.210;6.838;2023-02-19T02:57:40;14.70;71.70
27492;DHT22;14927;51.210;6.838;2023-02-19T03:00:27;14.70;71.60
27492;DHT22;14927;51.210;6.838;2023-02-19T03:03:34;14.60;71.50
27492;DHT22;14927;51.210;6.838;2023-02-19T03:06:24;14.60;71.40
27492;DHT22;14927;51.210;6.838;2023-02-19T03:09:18;14.60;71.60
27492;DHT22;14927;51.210;6.838;2023-02-19T03:12:14;14.60;71.70
27492;DHT22;14927;51.210;6.838;2023-02-19T03:15:18;14.60;71.80
27492;DHT22;14927;51.210;6.838;2023-02-19T03:18:34;14.60;71.70
27492;DHT22;14927;51.210;6.838;2023-02-19T03:21:40;14.60;71.70
27492;DHT22;14927;51.210;6.838;2023-02-19T03:24:31;14.60;71.70
27492;DHT22;14927;51.210;6.838;2023-02-19T03:27:38;14.60;71.70
27492;DHT22;14927;51.210;6.838;2023-02-19T03:30:28;14.60;71.60
27492;DHT22;14927;51.210;6.838;2023-02-19T03:33:20;14.60;71.50
27492;DHT22;14927;51.210;6.838;2023-02-19T03:36:07;14.60;71.50
27492;DHT22;14927;51.210;6.838;2023-02-19T03:39:03;14.60;71.50
27492;DHT22;14927;51.210;6.838;2023-02-19T03:42:04;14.60;71.50
27492;DHT22;14927;51.210;6.838;2023-02-19T03:45:02;14.60;71.40
27492;DHT22;14927;51.210;6.838;2023-02-19T03:51:23;14.60;71.30
27492;DHT22;14927;51.210;6.838;2023-02-19T03:58:04;14.50;71.40
27492;DHT22;14927;51.210;6.838;2023-02-19T04:01:04;14.50;71.10
27492;DHT22;14927;51.210;6.838;2023-02-19T04:04:20;14.50;70.90
27492;DHT22;14927;51.210;6.838;2023-02-19T04:07:16;14.50;71.00
27492;DHT22;14927;51.210;6.838;2023-02-19T04:10:02;14.50;70.90
27492;DHT22;14927;51.210;6.838;2023-02-19T04:12:51;14.50;71.00
27492;DHT22;14927;51.210;6.838;2023-02-19T04:15:37;14.50;71.00
27492;DHT22;14927;51.210;6.838;2023-02-19T04:18:27;14.50;71.30
27492;DHT22;14927;51.210;6.838;2023-02-19T04:21:15;14.50;70.60
27492;DHT22;14927;51.210;6.838;2023-02-19T04:24:03;14.50;70.70
27492;DHT22;14927;51.210;6.838;2023-02-19T04:26:51;14.50;70.80
27492;DHT22;14927;51.210;6.838;2023-02-19T04:29:35;14.50;70.80
27492;DHT22;14927;51.210;6.838;2023-02-19T04:32:20;14.50;70.80
27492;DHT22;14927;51.210;6.838;2023-02-19T04:35:05;14.50;71.00
27492;DHT22;14927;51.210;6.838;2023-02-19T04:37:49;14.50;70.70
27492;DHT22;14927;51.210;6.838;2023-02-19T04:40:34;14.50;70.70
27492;DHT22;14927;51.210;6.838;2023-02-19T04:43:19;14.50;70.70
27492;DHT22;14927;51.210;6.838;2023-02-19T04:46:03;14.50;70.60
27492;DHT22;14927;51.210;6.838;2023-02-19T04:48:48;14.50;70.50
27492;DHT22;14927;51.210;6.838;2023-02-19T04:51:32;14.60;70.40
27492;DHT22;14927;51.210;6.838;2023-02-19T04:54:17;14.50;70.30
27492;DHT22;14927;51.210;6.838;2023-02-19T04:57:02;14.80;70.30
27492;DHT22;14927;51.210;6.838;2023-02-19T04:59:46;14.50;70.00
27492;DHT22;14927;51.210;6.838;2023-02-19T05:02:31;14.50;69.90
27492;DHT22;14927;51.210;6.838;2023-02-19T05:05:16;14.50;69.90
27492;DHT22;14927;51.210;6.838;2023-02-19T05:08:00;14.50;69.90
27492;DHT22;14927;51.210;6.838;2023-02-19T05:10:45;14.50;69.90
27492;DHT22;14927;51.210;6.838;2023-02-19T05:13:30;14.50;70.60
27492;DHT22;14927;51.210;6.838;2023-02-19T05:16:15;14.50;69.80
27492;DHT22;14927;51.210;6.838;2023-02-19T05:19:00;14.50;69.70
27492;DHT22;14927;51.210;6.838;2023-02-19T05:21:45;14.40;69.60
27492;DHT22;14927;51.210;6.838;2023-02-19T05:24:29;14.40;69.60
27492;DHT22;14927;51.210;6.838;2023-02-19T05:27:14;14.40;69.40
27492;DHT22;14927;51.210;6.838;2023-02-19T05:29:59;14.40;69.40
27492;DHT22;14927;51.210;6.838;2023-02-19T05:32:43;14.40;69.40
27492;DHT22;14927;51.210;6.838;2023-02-19T05:35:28;14.40;69.60
27492;DHT22;14927;51.210;6.838;2023-02-19T05:38:14;14.40;69.60
27492;DHT22;14927;51.210;6.838;2023-02-19T05:43:56;14.30;69.50
27492;DHT22;14927;51.210;6.838;2023-02-19T05:46:41;14.40;69.60
27492;DHT22;14927;51.210;6.838;2023-02-19T05:49:26;14.30;69.60
27492;DHT22;14927;51.210;6.838;2023-02-19T05:52:10;14.30;69.60
27492;DHT22;14927;51.210;6.838;2023-02-19T05:54:55;14.30;69.70
27492;DHT22;14927;51.210;6.838;2023-02-19T05:57:41;14.40;69.70
27492;DHT22;14927;51.210;6.838;2023-02-19T06:00:27;14.40;69.80
27492;DHT22;14927;51.210;6.838;2023-02-19T06:03:11;14.30;69.60
27492;DHT22;14927;51.210;6.838;2023-02-19T06:05:56;14.40;69.60
27492;DHT22;14927;51.210;6.838;2023-02-19T06:08:41;14.30;69.50
27492;DHT22;14927;51.210;6.838;2023-02-19T06:11:28;14.30;69.40
27492;DHT22;14927;51.210;6.838;2023-02-19T06:14:13;14.30;69.40
27492;DHT22;14927;51.210;6.838;2023-02-19T06:16:57;14.30;69.40
27492;DHT22;14927;51.210;6.838;2023-02-19T06:19:42;14.30;69.20
27492;DHT22;14927;51.210;6.838;2023-02-19T06:22:27;14.30;69.20
27492;DHT22;14927;51.210;6.838;2023-02-19T06:25:11;14.30;69.30
27492;DHT22;14927;51.210;6.838;2023-02-19T06:27:56;14.30;69.30
27492;DHT22;14927;51.210;6.838;2023-02-19T06:30:41;14.20;69.20
27492;DHT22;14927;51.210;6.838;2023-02-19T06:33:26;14.20;69.30
27492;DHT22;14927;51.210;6.838;2023-02-19T06:36:13;14.20;69.40
27492;DHT22;14927;51.210;6.838;2023-02-19T06:39:00;14.20;69.50
27492;DHT22;14927;51.210;6.838;2023-02-19T06:41:47;14.20;69.50
27492;DHT22;14927;51.210;6.838;2023-02-19T06:44:31;14.30;69.70
27492;DHT22;14927;51.210;6.838;2023-02-19T06:47:16;14.20;69.60
27492;DHT22;14927;51.210;6.838;2023-02-19T06:50:01;14.20;69.80
27492;DHT22;14927;51.210;6.838;2023-02-19T06:52:45;14.20;69.90
27492;DHT22;14927;51.210;6.838;2023-02-19T06:55:30;14.20;70.00
27492;DHT22;14927;51.210;6.838;2023-02-19T06:58:15;14.20;70.10
27492;DHT22;14927;51.210;6.838;2023-02-19T07:01:00;14.20;70.00
27492;DHT22;14927;51.210;6.838;2023-02-19T07:03:45;14.10;70.00
27492;DHT22;14927;51.210;6.838;2023-02-19T07:06:30;14.10;70.10
27492;DHT22;14927;51.210;6.838;2023-02-19T07:09:15;14.20;70.10
27492;DHT22;14927;51.210;6.838;2023-02-19T07:12:00;14.10;70.00
27492;DHT22;14927;51.210;6.838;2023-02-19T07:14:44;14.10;70.10
27492;DHT22;14927;51.210;6.838;2023-02-19T07:17:29;14.10;70.20
27492;DHT22;14927;51.210;6.838;2023-02-19T07:20:13;14.10;70.20
27492;DHT22;14927;51.210;6.838;2023-02-19T07:22:58;14.20;70.10
27492;DHT22;14927;51.210;6.838;2023-02-19T07:25:43;14.10;69.90
27492;DHT22;14927;51.210;6.838;2023-02-19T07:28:27;14.10;69.80
27492;DHT22;14927;51.210;6.838;2023-02-19T07:31:13;14.10;69.70
27492;DHT22;14927;51.210;6.838;2023-02-19T07:33:58;14.20;69.80
27492;DHT22;14927;51.210;6.838;2023-02-19T07:36:43;14.10;69.70
27492;DHT22;14927;51.210;6.838;2023-02-19T07:39:27;14.10;70.30
27492;DHT22;14927;51.210;6.838;2023-02-19T07:42:12;14.10;69.50
27492;DHT22;14927;51.210;6.838;2023-02-19T07:44:57;14.10;69.40
27492;DHT22;14927;51.210;6.838;2023-02-19T07:47:42;14.10;69.30
27492;DHT22;14927;51.210;6.838;2023-02-19T07:50:26;14.10;69.30
27492;DHT22;14927;51.210;6.838;2023-02-19T07:53:11;14.10;69.30
27492;DHT22;14927;51.210;6.838;2023-02-19T07:56:02;14.10;69.20
27492;DHT22;14927;51.210;6.838;2023-02-19T07:58:48;14.10;69.20
27492;DHT22;14927;51.210;6.838;2023-02-19T08:01:33;14.10;69.20
27492;DHT22;14927;51.210;6.838;2023-02-19T08:04:38;14.10;69.20
27492;DHT22;14927;51.210;6.838;2023-02-19T08:07:24;14.10;69.20
27492;DHT22;14927;51.210;6.838;2023-02-19T08:10:14;14.10;69.30
27492;DHT22;14927;51.210;6.838;2023-02-19T08:13:29;14.10;69.30
27492;DHT22;14927;51.210;6.838;2023-02-19T08:16:15;14.10;69.20
27492;DHT22;14927;51.210;6.838;2023-02-19T08:19:02;14.10;69.30
27492;DHT22;14927;51.210;6.838;2023-02-19T08:21:47;14.10;69.40
27492;DHT22;14927;51.210;6.838;2023-02-19T08:24:33;14.40;69.60
27492;DHT22;14927;51.210;6.838;2023-02-19T08:27:22;14.10;69.40
27492;DHT22;14927;51.210;6.838;2023-02-19T08:40:54;14.20;69.30
27492;DHT22;14927;51.210;6.838;2023-02-19T08:59:43;14.30;68.70
27492;DHT22;14927;51.210;6.838;2023-02-19T09:02:28;14.30;68.70
27492;DHT22;14927;51.210;6.838;2023-02-19T09:05:16;14.40;68.70
27492;DHT22;14927;51.210;6.838;2023-02-19T09:08:01;14.40;68.30
27492;DHT22;14927;51.210;6.838;2023-02-19T09:10:59;14.40;68.00
27492;DHT22;14927;51.210;6.838;2023-02-19T09:13:45;14.40;67.70
27492;DHT22;14927;51.210;6.838;2023-02-19T09:16:33;14.40;67.70
27492;DHT22;14927;51.210;6.838;2023-02-19T09:19:18;14.40;67.60
27492;DHT22;14927;51.210;6.838;2023-02-19T09:22:04;14.40;67.60
27492;DHT22;14927;51.210;6.838;2023-02-19T09:24:48;14.40;67.50
27492;DHT22;14927;51.210;6.838;2023-02-19T09:27:33;14.50;67.60
27492;DHT22;14927;51.210;6.838;2023-02-19T09:30:18;14.50;67.40
27492;DHT22;14927;51.210;6.838;2023-02-19T09:33:04;14.50;67.20
27492;DHT22;14927;51.210;6.838;2023-02-19T09:35:49;14.50;67.10
27492;DHT22;14927;51.210;6.838;2023-02-19T09:38:34;14.80;67.30
27492;DHT22;14927;51.210;6.838;2023-02-19T09:41:29;14.50;67.20
27492;DHT22;14927;51.210;6.838;2023-02-19T09:47:20;14.50;67.00
27492;DHT22;14927;51.210;6.838;2023-02-19T09:50:11;14.50;67.00
27492;DHT22;14927;51.210;6.838;2023-02-19T09:52:58;14.50;67.10
27492;DHT22;14927;51.210;6.838;2023-02-19T09:55:46;14.60;67.40
27492;DHT22;14927;51.210;6.838;2023-02-19T09:58:45;14.60;67.70
27492;DHT22;14927;51.210;6.838;2023-02-19T10:01:31;14.60;67.80
27492;DHT22;14927;51.210;6.838;2023-02-19T10:04:17;14.60;67.90
27492;DHT22;14927;51.210;6.838;2023-02-19T10:07:02;14.60;67.50
27492;DHT22;14927;51.210;6.838;2023-02-19T10:13:11;14.60;68.10
27492;DHT22;14927;51.210;6.838;2023-02-19T10:16:03;14.50;68.20
27492;DHT22;14927;51.210;6.838;2023-02-19T10:18:50;14.50;68.30
27492;DHT22;14927;51.210;6.838;2023-02-19T10:21:36;14.60;68.10
27492;DHT22;14927;51.210;6.838;2023-02-19T10:24:26;14.50;68.10
27492;DHT22;14927;51.210;6.838;2023-02-19T10:27:14;14.60;68.20
27492;DHT22;14927;51.210;6.838;2023-02-19T10:30:32;14.60;68.30
27492;DHT22;14927;51.210;6.838;2023-02-19T10:33:18;14.60;67.90
27492;DHT22;14927;51.210;6.838;2023-02-19T10:36:20;14.60;67.90
27492;DHT22;14927;51.210;6.838;2023-02-19T10:39:40;14.60;67.90
27492;DHT22;14927;51.210;6.838;2023-02-19T10:42:28;14.60;67.90
27492;DHT22;14927;51.210;6.838;2023-02-19T10:48:23;14.60;66.70
27492;DHT22;14927;51.210;6.838;2023-02-19T10:51:12;14.70;66.90
27492;DHT22;14927;51.210;6.838;2023-02-19T10:54:17;14.70;66.90
27492;DHT22;14927;51.210;6.838;2023-02-19T10:57:48;14.70;66.50
27492;DHT22;14927;51.210;6.838;2023-02-19T11:09:24;14.80;67.70
27492;DHT22;14927;51.210;6.838;2023-02-19T11:13:15;14.70;67.90
27492;DHT22;14927;51.210;6.838;2023-02-19T11:16:16;14.70;68.70
27492;DHT22;14927;51.210;6.838;2023-02-19T11:26:31;14.80;68.50
27492;DHT22;14927;51.210;6.838;2023-02-19T11:29:22;14.80;68.20
27492;DHT22;14927;51.210;6.838;2023-02-19T11:32:28;14.80;68.30
27492;DHT22;14927;51.210;6.838;2023-02-19T11:35:20;14.70;68.50
27492;DHT22;14927;51.210;6.838;2023-02-19T11:38:10;14.70;68.50
27492;DHT22;14927;51.210;6.838;2023-02-19T11:41:16;14.70;68.70
27492;DHT22;14927;51.210;6.838;2023-02-19T11:50:52;14.60;69.90
27492;DHT22;14927;51.210;6.838;2023-02-19T11:54:31;14.60;69.70
27492;DHT22;14927;51.210;6.838;2023-02-19T11:57:41;14.50;70.30
27492;DHT22;14927;51.210;6.838;2023-02-19T12:00:38;14.50;70.20
27492;DHT22;14927;51.210;6.838;2023-02-19T12:10:22;14.60;70.50
27492;DHT22;14927;51.210;6.838;2023-02-19T12:13:29;14.60;70.00
27492;DHT22;14927;51.210;6.838;2023-02-19T12:23:10;14.70;70.00
27492;DHT22;14927;51.210;6.838;2023-02-19T12:25:56;14.70;69.60
27492;DHT22;14927;51.210;6.838;2023-02-19T12:36:25;14.80;69.00
27492;DHT22;14927;51.210;6.838;2023-02-19T12:39:55;14.80;68.90
27492;DHT22;14927;51.210;6.838;2023-02-19T12:43:13;14.80;68.50
27492;DHT22;14927;51.210;6.838;2023-02-19T12:46:07;14.90;68.80
27492;DHT22;14927;51.210;6.838;2023-02-19T12:49:30;14.90;68.70
27492;DHT22;14927;51.210;6.838;2023-02-19T12:52:23;15.00;68.50
27492;DHT22;14927;51.210;6.838;2023-02-19T12:55:35;15.00;68.20
27492;DHT22;14927;51.210;6.838;2023-02-19T12:58:42;15.00;68.30
27492;DHT22;14927;51.210;6.838;2023-02-19T13:01:44;15.00;67.80
27492;DHT22;14927;51.210;6.838;2023-02-19T13:04:47;15.10;67.60
27492;DHT22;14927;51.210;6.838;2023-02-19T13:07:38;15.10;67.40
27492;DHT22;14927;51.210;6.838;2023-02-19T13:10:53;15.20;67.30
27492;DHT22;14927;51.210;6.838;2023-02-19T13:16:53;15.20;66.80
27492;DHT22;14927;51.210;6.838;2023-02-19T13:19:43;15.20;67.40
27492;DHT22;14927;51.210;6.838;2023-02-19T13:22:38;15.20;66.60
27492;DHT22;14927;51.210;6.838;2023-02-19T13:32:57;15.30;66.20
27492;DHT22;14927;51.210;6.838;2023-02-19T13:36:14;15.30;66.10
27492;DHT22;14927;51.210;6.838;2023-02-19T13:39:12;15.30;66.10
27492;DHT22;14927;51.210;6.838;2023-02-19T13:41:58;15.30;66.40
27492;DHT22;14927;51.210;6.838;2023-02-19T13:44:50;15.20;66.30
27492;DHT22;14927;51.210;6.838;2023-02-19T13:47:59;15.20;66.40
27492;DHT22;14927;51.210;6.838;2023-02-19T13:50:49;15.20;66.40
27492;DHT22;14927;51.210;6.838;2023-02-19T13:53:58;15.20;66.60
27492;DHT22;14927;51.210;6.838;2023-02-19T13:56:44;15.20;66.70
27492;DHT22;14927;51.210;6.838;2023-02-19T13:59:37;15.20;66.70
27492;DHT22;14927;51.210;6.838;2023-02-19T14:02:27;15.30;66.30
27492;DHT22;14927;51.210;6.838;2023-02-19T14:05:14;15.20;67.00
27492;DHT22;14927;51.210;6.838;2023-02-19T14:08:52;15.20;66.10
27492;DHT22;14927;51.210;6.838;2023-02-19T14:17:40;15.30;64.90
27492;DHT22;14927;51.210;6.838;2023-02-19T14:20:44;15.30;64.60
27492;DHT22;14927;51.210;6.838;2023-02-19T14:23:29;15.30;64.70
27492;DHT22;14927;51.210;6.838;2023-02-19T14:26:14;15.30;65.00
27492;DHT22;14927;51.210;6.838;2023-02-19T14:29:00;15.40;64.80
27492;DHT22;14927;51.210;6.838;2023-02-19T14:31:45;15.40;64.50
27492;DHT22;14927;51.210;6.838;2023-02-19T14:34:30;15.30;64.00
27492;DHT22;14927;51.210;6.838;2023-02-19T14:37:18;15.40;63.70
27492;DHT22;14927;51.210;6.838;2023-02-19T14:40:04;15.30;63.20
27492;DHT22;14927;51.210;6.838;2023-02-19T14:42:50;15.40;63.10
27492;DHT22;14927;51.210;6.838;2023-02-19T14:45:46;15.30;62.90
27492;DHT22;14927;51.210;6.838;2023-02-19T14:48:38;15.30;62.80
27492;DHT22;14927;51.210;6.838;2023-02-19T14:51:31;15.30;63.10
27492;DHT22;14927;51.210;6.838;2023-02-19T14:54:50;15.30;63.10
27492;DHT22;14927;51.210;6.838;2023-02-19T14:57:42;15.30;63.30
27492;DHT22;14927;51.210;6.838;2023-02-19T15:00:39;15.30;63.50
27492;DHT22;14927;51.210;6.838;2023-02-19T15:06:13;15.20;63.90
27492;DHT22;14927;51.210;6.838;2023-02-19T15:09:05;15.10;63.90
27492;DHT22;14927;51.210;6.838;2023-02-19T15:11:50;15.10;64.80
27492;DHT22;14927;51.210;6.838;2023-02-19T15:14:38;15.10;64.00
27492;DHT22;14927;51.210;6.838;2023-02-19T15:17:33;15.10;63.90
27492;DHT22;14927;51.210;6.838;2023-02-19T15:20:23;15.10;64.00
27492;DHT22;14927;51.210;6.838;2023-02-19T15:23:19;15.00;64.00
27492;DHT22;14927;51.210;6.838;2023-02-19T15:26:17;15.00;63.90
27492;DHT22;14927;51.210;6.838;2023-02-19T15:29:11;15.00;64.00
27492;DHT22;14927;51.210;6.838;2023-02-19T15:31:59;15.00;64.20
27492;DHT22;14927;51.210;6.838;2023-02-19T15:34:59;15.00;64.40
27492;DHT22;14927;51.210;6.838;2023-02-19T15:37:45;15.00;64.40
27492;DHT22;14927;51.210;6.838;2023-02-19T15:40:30;15.00;64.60
27492;DHT22;14927;51.210;6.838;2023-02-19T15:46:19;15.00;64.60
27492;DHT22;14927;51.210;6.838;2023-02-19T15:49:45;15.00;64.70
27492;DHT22;14927;51.210;6.838;2023-02-19T15:56:08;15.00;64.80
27492;DHT22;14927;51.210;6.838;2023-02-19T15:59:19;15.00;64.90
27492;DHT22;14927;51.210;6.838;2023-02-19T16:02:14;15.00;65.10
27492;DHT22;14927;51.210;6.838;2023-02-19T16:05:14;14.90;65.00
27492;DHT22;14927;51.210;6.838;2023-02-19T16:08:19;14.90;65.10
27492;DHT22;14927;51.210;6.838;2023-02-19T16:11:41;14.90;65.10
27492;DHT22;14927;51.210;6.838;2023-02-19T16:14:47;14.80;65.00
27492;DHT22;14927;51.210;6.838;2023-02-19T16:17:33;14.80;65.10
27492;DHT22;14927;51.210;6.838;2023-02-19T16:20:35;14.80;65.10
27492;DHT22;14927;51.210;6.838;2023-02-19T16:23:20;14.80;65.10
27492;DHT22;14927;51.210;6.838;2023-02-19T16:26:08;14.80;65.20
27492;DHT22;14927;51.210;6.838;2023-02-19T16:28:53;14.80;65.10
27492;DHT22;14927;51.210;6.838;2023-02-19T16:31:46;14.80;65.10
27492;DHT22;14927;51.210;6.838;2023-02-19T16:34:48;14.80;65.10
27492;DHT22;14927;51.210;6.838;2023-02-19T16:37:56;14.70;65.00
27492;DHT22;14927;51.210;6.838;2023-02-19T16:43:41;14.60;64.20
27492;DHT22;14927;51.210;6.838;2023-02-19T16:46:28;14.60;63.50
27492;DHT22;14927;51.210;6.838;2023-02-19T16:49:13;14.50;63.20
27492;DHT22;14927;51.210;6.838;2023-02-19T16:51:58;14.60;63.10
27492;DHT22;14927;51.210;6.838;2023-02-19T16:54:44;14.50;62.90
27492;DHT22;14927;51.210;6.838;2023-02-19T16:57:30;14.40;62.30
27492;DHT22;14927;51.210;6.838;2023-02-19T17:00:26;14.40;61.90
27492;DHT22;14927;51.210;6.838;2023-02-19T17:03:18;14.30;61.10
27492;DHT22;14927;51.210;6.838;2023-02-19T17:06:07;14.30;61.00
27492;DHT22;14927;51.210;6.838;2023-02-19T17:08:52;14.50;61.40
27492;DHT22;14927;51.210;6.838;2023-02-19T17:11:37;14.20;61.00
27492;DHT22;14927;51.210;6.838;2023-02-19T17:14:26;14.10;61.00
27492;DHT22;14927;51.210;6.838;2023-02-19T17:17:11;14.10;61.10
27492;DHT22;14927;51.210;6.838;2023-02-19T17:19:56;14.10;61.10
27492;DHT22;14927;51.210;6.838;2023-02-19T17:22:41;14.00;60.90
27492;DHT22;14927;51.210;6.838;2023-02-19T17:25:25;13.90;60.80
27492;DHT22;14927;51.210;6.838;2023-02-19T17:28:11;14.00;60.80
27492;DHT22;14927;51.210;6.838;2023-02-19T17:30:58;13.80;60.60
27492;DHT22;14927;51.210;6.838;2023-02-19T17:33:43;14.00;60.70
27492;DHT22;14927;51.210;6.838;2023-02-19T17:36:30;13.90;60.60
27492;DHT22;14927;51.210;6.838;2023-02-19T17:39:17;13.90;60.50
27492;DHT22;14927;51.210;6.838;2023-02-19T17:42:02;13.80;60.40
27492;DHT22;14927;51.210;6.838;2023-02-19T17:44:48;13.70;60.50
27492;DHT22;14927;51.210;6.838;2023-02-19T17:47:35;13.80;60.50
27492;DHT22;14927;51.210;6.838;2023-02-19T17:50:22;13.80;60.60
27492;DHT22;14927;51.210;6.838;2023-02-19T17:53:11;13.80;60.50
27492;DHT22;14927;51.210;6.838;2023-02-19T17:55:56;13.90;60.50
27492;DHT22;14927;51.210;6.838;2023-02-19T17:58:40;13.80;60.50
27492;DHT22;14927;51.210;6.838;2023-02-19T18:01:25;13.70;60.60
27492;DHT22;14927;51.210;6.838;2023-02-19T18:04:10;13.70;60.60
27492;DHT22;14927;51.210;6.838;2023-02-19T18:06:54;13.70;60.40
27492;DHT22;14927;51.210;6.838;2023-02-19T18:09:39;13.70;60.30
27492;DHT22;14927;51.210;6.838;2023-02-19T18:12:32;13.70;60.30
27492;DHT22;14927;51.210;6.838;2023-02-19T18:15:19;13.70;60.20
27492;DHT22;14927;51.210;6.838;2023-02-19T18:18:06;13.50;60.40
27492;DHT22;14927;51.210;6.838;2023-02-19T18:20:52;13.70;60.60
27492;DHT22;14927;51.210;6.838;2023-02-19T18:23:37;13.60;60.40
27492;DHT22;14927;51.210;6.838;2023-02-19T18:26:23;13.60;60.40
27492;DHT22;14927;51.210;6.838;2023-02-19T18:29:08;13.60;60.30
27492;DHT22;14927;51.210;6.838;2023-02-19T18:32:02;13.60;60.10
27492;DHT22;14927;51.210;6.838;2023-02-19T18:34:54;13.50;59.90
27492;DHT22;14927;51.210;6.838;2023-02-19T18:37:40;13.50;60.30
27492;DHT22;14927;51.210;6.838;2023-02-19T18:40:25;13.50;60.50
27492;DHT22;14927;51.210;6.838;2023-02-19T18:43:10;13.50;60.50
27492;DHT22;14927;51.210;6.838;2023-02-19T18:46:08;13.40;60.50
27492;DHT22;14927;51.210;6.838;2023-02-19T18:48:54;13.40;60.70
27492;DHT22;14927;51.210;6.838;2023-02-19T18:51:39;13.30;60.80
27492;DHT22;14927;51.210;6.838;2023-02-19T18:54:28;13.30;60.90
27492;DHT22;14927;51.210;6.838;2023-02-19T18:57:14;13.40;61.00
27492;DHT22;14927;51.210;6.838;2023-02-19T18:59:59;13.20;60.90
27492;DHT22;14927;51.210;6.838;2023-02-19T19:02:44;13.20;60.90
27492;DHT22;14927;51.210;6.838;2023-02-19T19:05:29;13.20;60.90
27492;DHT22;14927;51.210;6.838;2023-02-19T19:08:13;13.20;61.00
27492;DHT22;14927;51.210;6.838;2023-02-19T19:11:01;13.10;60.90
27492;DHT22;14927;51.210;6.838;2023-02-19T19:13:47;13.10;61.00
27492;DHT22;14927;51.210;6.838;2023-02-19T19:16:32;13.10;61.00
27492;DHT22;14927;51.210;6.838;2023-02-19T19:19:18;13.00;61.10
27492;DHT22;14927;51.210;6.838;2023-02-19T19:22:05;13.00;61.20
27492;DHT22;14927;51.210;6.838;2023-02-19T19:24:53;13.00;61.20
27492;DHT22;14927;51.210;6.838;2023-02-19T19:27:38;13.00;61.20
27492;DHT22;14927;51.210;6.838;2023-02-19T19:30:25;13.00;61.10
27492;DHT22;14927;51.210;6.838;2023-02-19T19:33:14;13.10;61.10
27492;DHT22;14927;51.210;6.838;2023-02-19T19:36:08;13.10;60.90
27492;DHT22;14927;51.210;6.838;2023-02-19T19:38:53;13.10;60.90
27492;DHT22;14927;51.210;6.838;2023-02-19T19:41:38;12.90;60.80
27492;DHT22;14927;51.210;6.838;2023-02-19T19:44:27;13.10;60.60
27492;DHT22;14927;51.210;6.838;2023-02-19T19:47:15;13.10;60.50
27492;DHT22;14927;51.210;6.838;2023-02-19T19:50:00;13.20;60.50
27492;DHT22;14927;51.210;6.838;2023-02-19T19:52:46;13.10;60.30
27492;DHT22;14927;51.210;6.838;2023-02-19T19:55:34;13.10;60.20
27492;DHT22;14927;51.210;6.838;2023-02-19T19:58:20;13.10;60.20
27492;DHT22;14927;51.210;6.838;2023-02-19T20:01:10;13.10;60.10
27492;DHT22;14927;51.210;6.838;2023-02-19T20:03:58;13.10;59.90